createdAt,value
2022-11-10T00:01:09.079Z,20.02
2022-11-10T00:03:56.053Z,21.00
2022-11-10T00:06:44.882Z,22.52
2022-11-10T00:09:31.314Z,24.00
2022-11-10T00:12:20.777Z,24.23
2022-11-10T00:15:26.386Z,18.65
2022-11-10T00:18:14.011Z,25.50
2022-11-10T00:21:05.249Z,25.60
2022-11-10T00:23:52.167Z,59.08
2022-11-10T00:26:38.639Z,26.17
2022-11-10T00:29:25.506Z,29.65
2022-11-10T00:32:11.873Z,25.73
2022-11-10T00:34:58.722Z,27.63
2022-11-10T00:37:45.036Z,24.40
2022-11-10T00:40:32.836Z,29.35
2022-11-10T00:43:22.530Z,36.00
2022-11-10T00:46:13.656Z,31.85
2022-11-10T00:49:00.137Z,36.42
2022-11-10T00:51:48.080Z,36.75
2022-11-10T00:54:34.669Z,38.40
2022-11-10T00:57:22.512Z,36.25
2022-11-10T01:00:10.219Z,34.65
2022-11-10T01:02:57.066Z,34.42
2022-11-10T01:05:44.957Z,37.97
2022-11-10T01:08:32.169Z,39.00
2022-11-10T01:11:22.539Z,46.22
2022-11-10T01:14:10.360Z,41.83
2022-11-10T01:16:56.592Z,45.55
2022-11-10T01:19:43.458Z,49.85
2022-11-10T01:22:30.610Z,44.75
2022-11-10T01:25:17.881Z,50.80
2022-11-10T01:28:04.739Z,43.33
2022-11-10T01:30:58.819Z,46.97
2022-11-10T01:33:46.057Z,44.15
2022-11-10T01:36:32.850Z,41.75
2022-11-10T01:39:19.621Z,38.70
2022-11-10T01:42:06.727Z,39.45
2022-11-10T01:45:23.660Z,40.28
2022-11-10T01:48:16.269Z,41.47
2022-11-10T01:51:26.070Z,46.22
2022-11-10T01:54:37.670Z,40.53
2022-11-10T01:57:24.072Z,42.17
2022-11-10T02:00:13.000Z,38.53
2022-11-10T02:03:24.726Z,39.60
2022-11-10T02:06:14.316Z,44.53
2022-11-10T02:09:00.753Z,36.83
2022-11-10T02:11:49.958Z,31.73
2022-11-10T02:14:37.683Z,33.10
2022-11-10T02:17:24.649Z,44.45
2022-11-10T02:20:13.477Z,38.55
2022-11-10T02:23:11.080Z,42.80
2022-11-10T02:25:58.937Z,41.72
2022-11-10T02:28:45.894Z,40.75
2022-11-10T02:31:32.183Z,39.80
2022-11-10T02:34:18.949Z,41.90
2022-11-10T02:37:05.801Z,49.53
2022-11-10T02:39:53.660Z,46.25
2022-11-10T02:42:40.188Z,45.78
2022-11-10T02:45:28.160Z,51.75
2022-11-10T02:48:15.941Z,49.15
2022-11-10T02:51:02.670Z,41.88
2022-11-10T02:53:50.521Z,33.75
2022-11-10T02:56:38.540Z,38.85
2022-11-10T02:59:24.900Z,40.70
2022-11-10T03:02:12.839Z,38.55
2022-11-10T03:04:59.678Z,38.83
2022-11-10T03:07:46.506Z,32.70
2022-11-10T03:10:33.489Z,34.13
2022-11-10T03:13:20.396Z,37.28
2022-11-10T03:16:07.511Z,32.70
2022-11-10T03:18:54.489Z,36.78
2022-11-10T03:21:41.201Z,38.60
2022-11-10T03:24:29.549Z,36.50
2022-11-10T03:27:16.094Z,34.92
2022-11-10T03:30:03.481Z,31.88
2022-11-10T03:32:50.080Z,35.55
2022-11-10T03:35:37.340Z,32.40
2022-11-10T03:38:23.749Z,36.55
2022-11-10T03:41:19.747Z,38.30
2022-11-10T03:44:07.061Z,32.05
2022-11-10T03:46:54.341Z,26.25
2022-11-10T03:49:40.580Z,23.85
2022-11-10T03:52:27.477Z,23.90
2022-11-10T03:55:17.164Z,20.63
2022-11-10T03:58:04.670Z,22.38
2022-11-10T04:00:53.555Z,25.80
2022-11-10T04:03:40.468Z,21.33
2022-11-10T04:06:45.593Z,29.33
2022-11-10T04:09:33.188Z,22.17
2022-11-10T04:12:38.053Z,30.50
2022-11-10T04:15:43.305Z,24.67
2022-11-10T04:18:30.085Z,23.70
2022-11-10T04:21:17.456Z,27.35
2022-11-10T04:24:03.870Z,28.17
2022-11-10T04:26:51.029Z,25.33
2022-11-10T04:29:37.516Z,23.27
2022-11-10T04:32:24.198Z,26.13
2022-11-10T04:35:10.599Z,23.63
2022-11-10T04:37:57.766Z,25.80
2022-11-10T04:40:44.159Z,22.20
2022-11-10T04:43:31.764Z,22.75
2022-11-10T04:46:34.264Z,24.52
2022-11-10T04:49:21.253Z,24.63
2022-11-10T04:52:07.828Z,29.85
2022-11-10T04:54:54.570Z,26.25
2022-11-10T04:57:43.289Z,25.10
2022-11-10T05:00:29.945Z,26.58
2022-11-10T05:03:16.524Z,26.75
2022-11-10T05:06:03.399Z,30.75
2022-11-10T11:23:24.382Z,22.80
2022-11-10T11:26:30.391Z,23.83
2022-11-10T11:29:39.668Z,34.40
2022-11-10T11:32:54.559Z,24.20
2022-11-10T11:35:47.130Z,23.20
2022-11-10T11:38:55.420Z,31.50
2022-11-10T11:41:42.660Z,26.95
2022-11-10T11:44:57.759Z,26.42
2022-11-10T11:48:16.263Z,29.47
2022-11-10T11:51:22.965Z,27.30
2022-11-10T11:54:58.499Z,25.13
2022-11-10T11:57:55.467Z,27.92
2022-11-10T12:01:32.730Z,23.17
2022-11-10T12:04:38.768Z,28.67
2022-11-10T12:07:43.362Z,31.38
2022-11-10T12:10:43.123Z,30.70
2022-11-10T12:13:37.215Z,31.80
2022-11-10T12:16:30.115Z,33.22
2022-11-10T12:19:29.813Z,34.35
2022-11-10T12:23:04.510Z,35.47
2022-11-10T12:26:22.169Z,39.78
2022-11-10T12:29:33.016Z,33.67
2022-11-10T12:32:32.616Z,33.40
2022-11-10T12:35:34.559Z,29.02
2022-11-10T12:38:27.176Z,37.63
2022-11-10T12:41:19.380Z,32.28
2022-11-10T12:44:17.706Z,32.72
2022-11-10T12:47:12.446Z,33.60
2022-11-10T12:50:16.875Z,36.25
2022-11-10T12:53:19.115Z,29.30
2022-11-10T12:56:45.850Z,33.25
2022-11-10T12:59:34.611Z,37.20
2022-11-10T13:02:40.696Z,30.63
2022-11-10T13:05:41.180Z,33.10
2022-11-10T13:08:47.399Z,31.45
2022-11-10T13:11:36.889Z,30.15
2022-11-10T13:14:30.262Z,35.53
2022-11-10T13:17:26.977Z,33.67
2022-11-10T13:20:50.594Z,34.42
2022-11-10T13:23:38.261Z,35.80
2022-11-10T13:26:39.997Z,31.83
2022-11-10T13:29:49.000Z,35.15
2022-11-10T13:32:36.610Z,34.45
2022-11-10T13:35:29.830Z,29.00
2022-11-10T13:38:37.220Z,32.88
2022-11-10T13:41:26.973Z,31.52
2022-11-10T13:44:29.610Z,33.05
2022-11-10T13:47:40.665Z,35.33
2022-11-10T13:51:03.900Z,33.95
2022-11-10T13:54:25.901Z,33.65
2022-11-10T13:57:35.199Z,28.30
2022-11-10T14:00:29.374Z,29.13
2022-11-10T14:03:47.821Z,34.28
2022-11-10T14:06:37.422Z,31.10
2022-11-10T14:09:33.740Z,38.17
2022-11-10T14:12:34.005Z,31.70
2022-11-10T14:15:29.174Z,34.28
2022-11-10T14:18:39.961Z,32.55
2022-11-10T14:21:56.858Z,34.63
2022-11-10T14:25:10.199Z,36.55
2022-11-10T14:27:58.442Z,34.15
2022-11-10T14:30:52.793Z,37.58
2022-11-10T14:33:39.148Z,45.75
2022-11-10T14:36:25.995Z,41.25
2022-11-10T14:39:16.955Z,39.92
2022-11-10T14:42:05.998Z,45.40
2022-11-10T14:45:22.463Z,41.90
2022-11-10T14:48:19.167Z,43.85
2022-11-10T14:51:11.973Z,37.08
2022-11-10T14:53:58.852Z,38.45
2022-11-10T14:56:45.246Z,36.22
2022-11-10T14:59:33.265Z,36.00
2022-11-10T15:02:19.990Z,37.00
2022-11-10T15:05:14.578Z,40.10
2022-11-10T15:08:03.416Z,33.30
2022-11-10T15:10:53.452Z,38.50
2022-11-10T15:13:40.320Z,42.78
2022-11-10T15:16:36.856Z,40.28
2022-11-10T15:19:32.987Z,37.28
2022-11-10T15:22:41.477Z,41.17
2022-11-10T15:25:38.098Z,45.30
2022-11-10T15:28:34.452Z,47.47
2022-11-10T15:31:33.303Z,52.17
2022-11-10T15:34:41.937Z,48.40
2022-11-10T15:37:31.816Z,51.03
2022-11-10T15:40:28.565Z,54.08
2022-11-10T15:43:24.823Z,49.60
2022-11-10T15:46:25.179Z,48.15
2022-11-10T15:49:33.305Z,56.58
2022-11-10T15:52:22.894Z,60.55
2022-11-10T15:55:23.045Z,59.65
2022-11-10T15:58:22.836Z,73.28
2022-11-10T16:01:12.947Z,63.90
2022-11-10T16:04:00.024Z,62.72
2022-11-10T16:06:46.964Z,60.95
2022-11-10T16:09:35.448Z,58.47
2022-11-10T16:12:23.537Z,57.50
2022-11-10T16:15:19.866Z,59.70
2022-11-10T16:18:17.329Z,59.78
2022-11-10T16:21:05.135Z,57.97
2022-11-10T16:23:52.936Z,56.05
2022-11-10T16:26:40.949Z,56.95
2022-11-10T16:29:27.576Z,55.55
2022-11-10T16:32:15.666Z,76.13
2022-11-10T16:35:04.214Z,61.83
2022-11-10T16:37:51.434Z,60.47
2022-11-10T16:40:38.241Z,58.20
2022-11-10T16:43:26.518Z,57.50
2022-11-10T16:46:22.814Z,58.55
2022-11-10T16:49:36.423Z,54.22
2022-11-10T16:52:22.963Z,55.75
2022-11-10T16:55:14.120Z,52.22
2022-11-10T16:58:01.121Z,49.88
2022-11-10T17:00:49.064Z,59.42
2022-11-10T17:03:46.935Z,54.88
2022-11-10T17:06:34.585Z,59.42
2022-11-10T17:09:28.099Z,51.58
2022-11-10T17:12:15.180Z,51.13
2022-11-10T17:15:01.808Z,53.13
2022-11-10T17:17:54.657Z,55.25
2022-11-10T17:20:43.377Z,58.80
2022-11-10T17:23:30.400Z,57.70
2022-11-10T17:26:19.848Z,58.67
2022-11-10T17:29:06.889Z,56.65
2022-11-10T17:31:54.428Z,68.70
2022-11-10T17:34:41.263Z,56.28
2022-11-10T17:37:27.618Z,68.75
2022-11-10T17:40:18.975Z,56.10
2022-11-10T17:43:05.551Z,56.42
2022-11-10T17:45:52.362Z,52.35
2022-11-10T17:48:38.880Z,54.53
2022-11-10T17:51:26.750Z,62.88
2022-11-10T17:54:15.790Z,59.58
2022-11-10T17:57:04.822Z,59.78
2022-11-10T17:59:51.549Z,59.03
2022-11-10T18:02:39.382Z,51.30
2022-11-10T18:05:27.079Z,58.28
2022-11-10T18:08:15.208Z,55.35
2022-11-10T18:11:01.815Z,61.28
2022-11-10T18:13:48.589Z,59.42
2022-11-10T18:16:34.992Z,54.60
2022-11-10T18:19:21.755Z,55.33
2022-11-10T18:22:08.721Z,55.05
2022-11-10T18:24:55.303Z,60.45
2022-11-10T18:27:43.362Z,86.65
2022-11-10T18:30:34.866Z,67.32
2022-11-10T18:33:23.634Z,64.50
2022-11-10T18:36:11.893Z,61.13
2022-11-10T18:38:58.330Z,57.08
2022-11-10T18:41:52.551Z,57.95
2022-11-10T18:44:39.768Z,64.30
2022-11-10T18:47:26.559Z,69.05
2022-11-10T18:50:13.262Z,59.95
2022-11-10T18:53:04.197Z,63.15
2022-11-10T18:55:55.357Z,54.53
2022-11-10T18:58:42.623Z,61.05
2022-11-10T19:01:29.652Z,55.42
2022-11-10T19:04:17.869Z,61.15
2022-11-10T19:07:04.691Z,58.03
2022-11-10T19:09:53.169Z,54.70
2022-11-10T19:12:39.751Z,53.20
2022-11-10T19:15:27.628Z,60.20
2022-11-10T19:18:14.502Z,55.58
2022-11-10T19:21:07.838Z,59.95
2022-11-10T19:23:56.679Z,60.53
2022-11-10T19:26:43.677Z,61.80
2022-11-10T19:29:30.520Z,60.20
2022-11-10T19:32:22.131Z,60.00
2022-11-10T19:35:13.827Z,58.17
2022-11-10T19:38:00.758Z,53.72
2022-11-10T19:40:47.467Z,52.65
2022-11-10T19:43:34.810Z,50.92
2022-11-10T19:46:28.047Z,50.20
2022-11-10T19:49:15.040Z,51.97
2022-11-10T19:52:01.776Z,50.17
2022-11-10T19:54:48.510Z,48.22
2022-11-10T19:57:35.994Z,46.67
2022-11-10T20:00:24.646Z,46.92
2022-11-10T20:03:11.787Z,55.33
2022-11-10T20:06:01.137Z,55.13
2022-11-10T20:08:49.365Z,51.38
2022-11-10T20:11:36.104Z,46.25
2022-11-10T20:14:22.564Z,46.03
2022-11-10T20:17:09.534Z,48.08
2022-11-10T20:19:55.847Z,50.42
2022-11-10T20:22:42.614Z,49.08
2022-11-10T20:25:30.074Z,41.80
2022-11-10T20:28:17.105Z,50.42
2022-11-10T20:31:06.334Z,41.10
2022-11-10T20:33:55.792Z,46.05
2022-11-10T20:36:42.595Z,49.03
2022-11-10T20:39:29.586Z,47.15
2022-11-10T20:42:16.294Z,45.75
2022-11-10T20:45:03.107Z,45.63
2022-11-10T20:47:49.744Z,49.80
2022-11-10T20:50:40.016Z,45.47
2022-11-10T20:53:29.306Z,48.10
2022-11-10T20:56:16.328Z,42.83
2022-11-10T20:59:03.125Z,48.78
2022-11-10T21:01:50.084Z,45.85
2022-11-10T21:04:41.771Z,44.95
2022-11-10T21:07:30.035Z,51.80
2022-11-10T21:10:16.621Z,48.45
2022-11-10T21:13:03.347Z,43.55
2022-11-10T21:16:01.413Z,36.00
2022-11-10T21:18:48.109Z,44.28
2022-11-10T21:21:34.953Z,36.67
2022-11-10T21:24:23.133Z,44.13
2022-11-10T21:27:11.491Z,45.97
2022-11-10T21:29:59.521Z,39.53
2022-11-10T21:32:46.054Z,37.50
2022-11-10T21:35:38.175Z,36.85
2022-11-10T21:38:25.385Z,42.42
2022-11-10T21:41:12.472Z,42.17
2022-11-10T21:43:59.208Z,49.25
2022-11-10T21:46:47.342Z,35.47
2022-11-10T21:49:34.434Z,41.67
2022-11-10T21:52:21.143Z,41.28
2022-11-10T21:55:08.622Z,40.67
2022-11-10T21:57:58.367Z,41.42
2022-11-10T22:00:45.192Z,41.70
2022-11-10T22:03:33.786Z,35.97
2022-11-10T22:06:21.609Z,35.03
2022-11-10T22:09:09.833Z,36.05
2022-11-10T22:12:14.889Z,35.90
2022-11-10T22:15:21.030Z,34.80
2022-11-10T22:18:33.834Z,36.00
2022-11-10T22:21:21.939Z,33.72
2022-11-10T22:24:23.846Z,37.33
2022-11-10T22:27:10.657Z,32.33
2022-11-10T22:29:57.127Z,38.95
2022-11-10T22:32:44.073Z,36.83
2022-11-10T22:35:46.075Z,31.73
2022-11-10T22:38:36.282Z,31.20
2022-11-10T22:41:41.375Z,29.50
2022-11-10T22:44:28.634Z,34.33
2022-11-10T22:47:17.006Z,26.77
2022-11-10T22:50:04.306Z,26.52
2022-11-10T22:52:51.016Z,42.55
2022-11-10T22:55:37.748Z,30.13
2022-11-10T22:58:24.385Z,34.20
2022-11-10T23:01:12.845Z,32.08
2022-11-10T23:04:00.687Z,30.23
2022-11-10T23:06:48.607Z,31.95
2022-11-10T23:09:35.577Z,31.20
2022-11-10T23:12:22.665Z,26.88
2022-11-10T23:15:09.909Z,34.45
2022-11-10T23:17:59.940Z,29.48
2022-11-10T23:20:49.246Z,30.40
2022-11-10T23:23:37.915Z,25.35
2022-11-10T23:26:27.700Z,23.70
2022-11-10T23:29:15.530Z,28.80
2022-11-10T23:32:02.781Z,22.70
2022-11-10T23:34:50.000Z,21.73
2022-11-10T23:37:36.548Z,19.85
2022-11-10T23:40:24.234Z,22.55
2022-11-10T23:43:10.843Z,21.70
2022-11-10T23:46:07.281Z,22.00
2022-11-10T23:48:54.925Z,22.02
2022-11-10T23:51:43.142Z,20.25
2022-11-10T23:54:29.616Z,20.25
2022-11-10T23:57:17.377Z,18.45
